Time;durP1;ratioP1;P1;durP2;ratioP2;P2;SDS_P1;SDS_P2;PMS_P1;PMS_P2;Temp;Humidity;BMP_temperature;BMP_pressure;BME280_temperature;BME280_humidity;BME280_pressure;Samples;Min_cycle;Max_cycle;Signal;HPM_P1;HPM_P2
2021/11/10 00:00:50;;;;;;;29.63;16.20;;;;;;;;;;5119280;28;20523;-64
2021/11/10 00:03:19;;;;;;;26.90;16.80;;;;;;;;;;5117790;28;20439;-64
2021/11/10 00:05:48;;;;;;;28.70;17.30;;;;;;;;;;5116849;28;20537;-64
2021/11/10 00:08:16;;;;;;;31.73;17.47;;;;;;;;;;5116580;28;20494;-64
2021/11/10 00:10:44;;;;;;;40.17;18.77;;;;;;;;;;5116777;28;20470;-64
2021/11/10 00:13:18;;;;;;;33.83;17.97;;;;;;;;;;5116537;27;20521;-64
2021/11/10 00:15:46;;;;;;;31.40;17.13;;;;;;;;;;5116705;28;20973;-64
2021/11/10 00:18:15;;;;;;;30.70;18.07;;;;;;;;;;5118160;28;20469;-63
2021/11/10 00:20:43;;;;;;;33.17;17.57;;;;;;;;;;5118461;28;20514;-64
2021/11/10 00:23:12;;;;;;;29.87;16.53;;;;;;;;;;5118268;28;20449;-64
2021/11/10 00:25:40;;;;;;;32.77;17.70;;;;;;;;;;5118555;28;20482;-64
2021/11/10 00:28:08;;;;;;;33.10;17.33;;;;;;;;;;5117768;28;20830;-63
2021/11/10 00:30:36;;;;;;;34.40;18.40;;;;;;;;;;5118137;28;20945;-64
2021/11/10 00:33:05;;;;;;;32.53;17.17;;;;;;;;;;5118400;28;20522;-64
2021/11/10 00:35:33;;;;;;;33.93;17.77;;;;;;;;;;5118097;28;20442;-64
2021/11/10 00:38:01;;;;;;;33.83;17.87;;;;;;;;;;5118327;28;20550;-64
2021/11/10 00:40:30;;;;;;;36.40;18.40;;;;;;;;;;5133551;27;20529;-64
2021/11/10 00:42:58;;;;;;;33.17;17.37;;;;;;;;;;5138576;27;20489;-64
2021/11/10 00:45:27;;;;;;;33.67;17.63;;;;;;;;;;5138443;27;20806;-64
2021/11/10 00:47:55;;;;;;;31.10;17.07;;;;;;;;;;5138611;27;20530;-64
2021/11/10 00:50:24;;;;;;;37.73;17.63;;;;;;;;;;5138698;27;20525;-64
2021/11/10 00:52:52;;;;;;;31.23;18.73;;;;;;;;;;5138200;27;20469;-64
2021/11/10 00:55:20;;;;;;;33.47;17.80;;;;;;;;;;5138437;27;21007;-64
2021/11/10 00:57:50;;;;;;;34.50;17.10;;;;;;;;;;5137968;27;20826;-64
2021/11/10 01:00:19;;;;;;;37.33;17.87;;;;;;;;;;5138660;27;20529;-64
2021/11/10 01:02:47;;;;;;;35.83;18.80;;;;;;;;;;5138411;27;20557;-63
2021/11/10 01:05:16;;;;;;;36.80;18.03;;;;;;;;;;5138303;27;20444;-64
2021/11/10 01:07:44;;;;;;;35.97;18.07;;;;;;;;;;5138479;27;20997;-64
2021/11/10 01:10:12;;;;;;;30.43;17.07;;;;;;;;;;5142664;27;20470;-64
2021/11/10 01:12:42;;;;;;;38.93;18.63;;;;;;;;;;5142700;27;20524;-64
2021/11/10 01:15:12;;;;;;;37.97;18.83;;;;;;;;;;5142611;27;20528;-64
2021/11/10 01:17:40;;;;;;;33.20;17.03;;;;;;;;;;5123951;27;21013;-64
2021/11/10 01:20:09;;;;;;;28.43;15.73;;;;;;;;;;5122034;28;20529;-64
2021/11/10 01:22:37;;;;;;;29.60;16.47;;;;;;;;;;5121851;28;20566;-64
2021/11/10 01:25:06;;;;;;;33.40;18.40;;;;;;;;;;5122093;28;20466;-64
2021/11/10 01:27:34;;;;;;;38.87;18.17;;;;;;;;;;5121595;28;20521;-64
2021/11/10 01:30:03;;;;;;;33.73;18.13;;;;;;;;;;5121829;28;20517;-64
2021/11/10 01:32:32;;;;;;;39.63;18.47;;;;;;;;;;5121834;28;20523;-64
2021/11/10 01:35:00;;;;;;;39.00;20.63;;;;;;;;;;5121783;28;20466;-64
2021/11/10 01:37:28;;;;;;;31.77;16.53;;;;;;;;;;5121475;28;20514;-64
2021/11/10 01:39:57;;;;;;;40.53;20.47;;;;;;;;;;5121399;28;20490;-64
2021/11/10 01:42:28;;;;;;;38.77;18.23;;;;;;;;;;5121201;27;20482;-64
2021/11/10 01:44:56;;;;;;;33.73;18.40;;;;;;;;;;5121528;28;20442;-64
2021/11/10 01:47:24;;;;;;;38.20;18.57;;;;;;;;;;5121625;28;20513;-63
2021/11/10 01:49:54;;;;;;;38.93;19.20;;;;;;;;;;5121368;28;20900;-64
2021/11/10 01:52:22;;;;;;;49.50;17.70;;;;;;;;;;5121667;27;21045;-64
2021/11/10 01:54:51;;;;;;;33.70;17.87;;;;;;;;;;5122184;27;20470;-64
2021/11/10 01:57:19;;;;;;;32.73;17.80;;;;;;;;;;5121732;28;20529;-64
2021/11/10 01:59:48;;;;;;;33.37;18.40;;;;;;;;;;5121254;27;20553;-64
2021/11/10 02:02:21;;;;;;;34.73;17.67;;;;;;;;;;5121428;28;20569;-64
2021/11/10 02:04:50;;;;;;;41.87;17.87;;;;;;;;;;5121149;28;20442;-64
2021/11/10 02:07:20;;;;;;;37.20;18.07;;;;;;;;;;5121528;28;20449;-64
2021/11/10 02:09:49;;;;;;;33.87;19.27;;;;;;;;;;5121041;28;20545;-64
2021/11/10 02:12:18;;;;;;;36.90;18.30;;;;;;;;;;5120962;28;20526;-64
2021/11/10 02:14:46;;;;;;;38.93;18.10;;;;;;;;;;5120931;28;21001;-64
2021/11/10 02:17:16;;;;;;;37.40;17.70;;;;;;;;;;5120803;28;20957;-64
2021/11/10 02:19:44;;;;;;;37.87;18.03;;;;;;;;;;5120277;28;20527;-64
2021/11/10 02:22:16;;;;;;;37.63;19.50;;;;;;;;;;5120796;28;20561;-64
2021/11/10 02:24:44;;;;;;;38.67;19.67;;;;;;;;;;5120935;28;20522;-63
2021/11/10 02:27:17;;;;;;;41.13;19.67;;;;;;;;;;5120530;28;20493;-63
2021/11/10 02:29:46;;;;;;;36.37;18.10;;;;;;;;;;5115740;28;20494;-64
2021/11/10 02:32:15;;;;;;;37.53;18.03;;;;;;;;;;5120800;28;20473;-63
2021/11/10 02:34:44;;;;;;;41.00;20.37;;;;;;;;;;5120852;28;20518;-63
2021/11/10 02:37:13;;;;;;;39.80;19.70;;;;;;;;;;5120782;28;20529;-64
2021/11/10 02:39:42;;;;;;;40.33;18.90;;;;;;;;;;5120516;28;20526;-63
2021/11/10 02:42:10;;;;;;;34.53;17.93;;;;;;;;;;5120376;28;20510;-63
2021/11/10 02:44:38;;;;;;;39.63;19.93;;;;;;;;;;5120368;27;20447;-63
2021/11/10 02:47:07;;;;;;;46.60;19.10;;;;;;;;;;5120612;28;20530;-63
2021/11/10 02:49:35;;;;;;;43.30;19.67;;;;;;;;;;5120561;28;20991;-63
2021/11/10 02:52:05;;;;;;;36.40;19.00;;;;;;;;;;5120331;28;20478;-63
2021/11/10 02:54:34;;;;;;;38.67;18.57;;;;;;;;;;5120399;28;20477;-64
2021/11/10 02:57:05;;;;;;;33.57;18.00;;;;;;;;;;5119811;28;20872;-64
2021/11/10 02:59:33;;;;;;;38.70;19.03;;;;;;;;;;5119935;28;20542;-64
2021/11/10 03:02:02;;;;;;;41.23;20.20;;;;;;;;;;5120040;28;20461;-64
2021/11/10 03:04:31;;;;;;;47.07;19.60;;;;;;;;;;5120297;28;20442;-64
2021/11/10 03:07:00;;;;;;;42.40;21.20;;;;;;;;;;5120108;28;20530;-64
2021/11/10 03:09:29;;;;;;;34.57;17.80;;;;;;;;;;5120074;28;20550;-64
2021/11/10 03:11:58;;;;;;;40.17;20.70;;;;;;;;;;5120032;27;20525;-64
2021/11/10 03:14:28;;;;;;;39.73;19.60;;;;;;;;;;5119671;28;20872;-65
2021/11/10 03:16:56;;;;;;;40.10;18.90;;;;;;;;;;5120026;28;20523;-64
2021/11/10 03:19:26;;;;;;;37.83;18.30;;;;;;;;;;5119892;28;20470;-64
2021/11/10 03:21:55;;;;;;;44.13;20.00;;;;;;;;;;5119885;28;20453;-64
2021/11/10 03:24:23;;;;;;;41.23;19.77;;;;;;;;;;5119633;28;20489;-64
2021/11/10 03:26:51;;;;;;;38.97;20.77;;;;;;;;;;5119138;28;20527;-63
2021/11/10 03:29:19;;;;;;;43.67;21.40;;;;;;;;;;5119455;28;20530;-63
2021/11/10 03:31:49;;;;;;;47.03;19.27;;;;;;;;;;5118759;28;20522;-64
2021/11/10 03:34:17;;;;;;;41.83;20.70;;;;;;;;;;5107566;28;20866;-63
2021/11/10 03:36:45;;;;;;;45.43;20.07;;;;;;;;;;5115405;28;20514;-64
2021/11/10 03:39:14;;;;;;;43.10;22.57;;;;;;;;;;5118555;28;20546;-63
2021/11/10 03:41:43;;;;;;;43.37;19.47;;;;;;;;;;5118966;28;20521;-64
2021/11/10 03:44:11;;;;;;;52.03;21.40;;;;;;;;;;5119182;28;20565;-64
2021/11/10 03:46:42;;;;;;;51.13;18.80;;;;;;;;;;5119403;28;20470;-64
2021/11/10 03:49:12;;;;;;;36.33;18.43;;;;;;;;;;5119133;28;20541;-64
2021/11/10 03:51:40;;;;;;;44.10;19.47;;;;;;;;;;5118976;28;20498;-64
2021/11/10 03:54:08;;;;;;;36.37;19.27;;;;;;;;;;5119185;28;20525;-64
2021/11/10 03:56:36;;;;;;;45.47;19.90;;;;;;;;;;5118678;27;20529;-64
2021/11/10 03:59:04;;;;;;;42.93;19.27;;;;;;;;;;5119019;28;20547;-64
2021/11/10 04:01:32;;;;;;;36.53;19.53;;;;;;;;;;5118881;28;20526;-64
2021/11/10 04:04:01;;;;;;;46.07;20.63;;;;;;;;;;5118293;28;20482;-63
2021/11/10 04:06:31;;;;;;;37.73;19.53;;;;;;;;;;5116980;28;20481;-64
2021/11/10 04:08:59;;;;;;;44.47;20.30;;;;;;;;;;5117055;28;20550;-63
2021/11/10 04:11:27;;;;;;;36.33;18.87;;;;;;;;;;5116776;28;20454;-64
2021/11/10 04:13:55;;;;;;;38.67;19.57;;;;;;;;;;5116648;28;21078;-63
2021/11/10 04:16:23;;;;;;;36.03;19.87;;;;;;;;;;5116998;28;20443;-64
2021/11/10 04:18:51;;;;;;;49.93;21.70;;;;;;;;;;5117056;28;20541;-64
2021/11/10 04:21:20;;;;;;;41.27;19.27;;;;;;;;;;5118642;28;20485;-63
2021/11/10 04:23:52;;;;;;;44.60;19.43;;;;;;;;;;5118345;28;20565;-63
2021/11/10 04:26:21;;;;;;;41.53;19.03;;;;;;;;;;5118505;28;20435;-63
2021/11/10 04:28:49;;;;;;;40.23;19.33;;;;;;;;;;5118559;28;20542;-64
2021/11/10 04:31:17;;;;;;;39.27;18.03;;;;;;;;;;5118497;28;20526;-63
2021/11/10 04:33:45;;;;;;;40.13;19.80;;;;;;;;;;5118208;28;20949;-64
2021/11/10 04:36:14;;;;;;;37.77;18.77;;;;;;;;;;5118424;28;20538;-64
2021/11/10 04:38:42;;;;;;;37.97;18.93;;;;;;;;;;5118072;28;20886;-63
2021/11/10 04:41:12;;;;;;;44.77;20.57;;;;;;;;;;5118849;28;20474;-64
2021/11/10 04:43:40;;;;;;;42.20;20.10;;;;;;;;;;5118438;28;20565;-64
2021/11/10 04:46:11;;;;;;;40.23;19.93;;;;;;;;;;5118563;28;20529;-64
2021/11/10 04:48:39;;;;;;;44.00;20.33;;;;;;;;;;5118154;28;20473;-64
2021/11/10 04:51:08;;;;;;;39.17;19.43;;;;;;;;;;5117821;28;20585;-64
2021/11/10 04:53:38;;;;;;;47.57;21.00;;;;;;;;;;5118102;28;20864;-64
2021/11/10 04:56:06;;;;;;;45.60;20.00;;;;;;;;;;5117780;28;21183;-64
2021/11/10 04:58:38;;;;;;;42.77;20.40;;;;;;;;;;5118092;28;20546;-64
2021/11/10 05:01:06;;;;;;;40.00;20.53;;;;;;;;;;5118016;28;20545;-64
2021/11/10 05:03:34;;;;;;;39.17;18.60;;;;;;;;;;5117745;28;20566;-64
2021/11/10 05:06:02;;;;;;;41.80;19.90;;;;;;;;;;5118196;28;20466;-65
2021/11/10 05:08:30;;;;;;;39.90;19.33;;;;;;;;;;5117134;28;20522;-65
2021/11/10 05:10:58;;;;;;;38.10;20.23;;;;;;;;;;5109418;28;20537;-64
2021/11/10 05:13:26;;;;;;;35.10;19.00;;;;;;;;;;5113620;28;20442;-65
2021/11/10 05:15:56;;;;;;;37.63;20.27;;;;;;;;;;5109879;28;20499;-65
2021/11/10 05:18:24;;;;;;;39.17;20.03;;;;;;;;;;5110051;28;20474;-64
2021/11/10 05:20:52;;;;;;;36.70;17.50;;;;;;;;;;5129459;28;20517;-65
2021/11/10 05:23:20;;;;;;;34.67;17.90;;;;;;;;;;5138080;27;21329;-65
2021/11/10 05:25:49;;;;;;;35.47;18.20;;;;;;;;;;5136338;27;20521;-65
2021/11/10 05:28:17;;;;;;;33.03;19.00;;;;;;;;;;5117703;28;20538;-65
2021/11/10 05:30:45;;;;;;;36.33;17.73;;;;;;;;;;5117459;28;20566;-65
2021/11/10 05:33:15;;;;;;;32.80;17.60;;;;;;;;;;5106838;28;20518;-65
2021/11/10 05:35:43;;;;;;;35.40;18.20;;;;;;;;;;5117216;28;20950;-65
2021/11/10 05:38:11;;;;;;;37.00;19.07;;;;;;;;;;5117528;28;20553;-65
2021/11/10 05:40:39;;;;;;;34.90;18.00;;;;;;;;;;5117387;28;20529;-65
2021/11/10 05:43:07;;;;;;;40.20;19.13;;;;;;;;;;5117270;28;20533;-65
2021/11/10 05:45:35;;;;;;;34.53;19.53;;;;;;;;;;5117044;28;20521;-65
2021/11/10 05:48:04;;;;;;;35.23;18.30;;;;;;;;;;5117567;28;20458;-64
2021/11/10 05:50:33;;;;;;;35.57;18.37;;;;;;;;;;5117044;28;20439;-65
2021/11/10 05:53:01;;;;;;;40.03;19.63;;;;;;;;;;5116806;28;20546;-65
2021/11/10 05:55:30;;;;;;;34.10;17.90;;;;;;;;;;5117502;28;20546;-65
2021/11/10 05:57:58;;;;;;;33.67;17.83;;;;;;;;;;5120360;27;21017;-64
2021/11/10 06:00:26;;;;;;;39.30;20.20;;;;;;;;;;5120847;27;20879;-64
2021/11/10 06:02:56;;;;;;;31.33;18.60;;;;;;;;;;5120885;28;20435;-64
2021/11/10 06:05:25;;;;;;;38.90;18.87;;;;;;;;;;5120872;28;20489;-64
2021/11/10 06:07:54;;;;;;;37.23;17.53;;;;;;;;;;5115913;28;20543;-64
2021/11/10 06:10:22;;;;;;;34.43;18.07;;;;;;;;;;5138458;27;20480;-64
2021/11/10 06:12:50;;;;;;;33.53;17.33;;;;;;;;;;5140976;27;20867;-64
2021/11/10 06:15:19;;;;;;;37.03;20.13;;;;;;;;;;5136617;27;20522;-64
2021/11/10 06:17:47;;;;;;;41.20;20.07;;;;;;;;;;5110129;28;20504;-64
2021/11/10 06:20:15;;;;;;;34.70;19.00;;;;;;;;;;5119851;28;20478;-65
2021/11/10 06:22:43;;;;;;;34.23;17.83;;;;;;;;;;5120460;27;20525;-66
2021/11/10 06:25:13;;;;;;;35.97;19.63;;;;;;;;;;5106941;28;20912;-65
2021/11/10 06:27:41;;;;;;;38.07;18.77;;;;;;;;;;5134334;27;20437;-64
2021/11/10 06:30:10;;;;;;;33.57;18.83;;;;;;;;;;5122006;27;21177;-64
2021/11/10 06:32:38;;;;;;;38.77;19.77;;;;;;;;;;5118539;27;20476;-65
2021/11/10 06:35:06;;;;;;;36.07;18.93;;;;;;;;;;5107402;28;20440;-64
2021/11/10 06:37:34;;;;;;;37.53;18.67;;;;;;;;;;5108083;28;20473;-64
2021/11/10 06:40:02;;;;;;;30.20;17.50;;;;;;;;;;5107902;28;20531;-64
2021/11/10 06:42:32;;;;;;;36.00;18.87;;;;;;;;;;5108376;27;20519;-64
2021/11/10 06:45:00;;;;;;;34.27;18.93;;;;;;;;;;5109075;28;21052;-64
2021/11/10 06:47:28;;;;;;;34.47;18.47;;;;;;;;;;5119565;28;20485;-63
2021/11/10 06:49:57;;;;;;;35.53;19.00;;;;;;;;;;5120094;28;20553;-64
2021/11/10 06:52:25;;;;;;;39.30;19.30;;;;;;;;;;5117771;28;20530;-63
2021/11/10 06:54:53;;;;;;;34.00;19.37;;;;;;;;;;5107798;28;20458;-63
2021/11/10 06:57:22;;;;;;;35.33;18.87;;;;;;;;;;5103739;28;20519;-64
2021/11/10 06:59:51;;;;;;;35.53;18.80;;;;;;;;;;5108867;28;20494;-65
2021/11/10 07:02:20;;;;;;;38.47;19.37;;;;;;;;;;5109356;28;20446;-64
2021/11/10 07:04:48;;;;;;;33.30;18.67;;;;;;;;;;5119360;28;20510;-64
2021/11/10 07:07:19;;;;;;;35.67;18.67;;;;;;;;;;5119162;28;20465;-64
2021/11/10 07:09:47;;;;;;;35.93;19.27;;;;;;;;;;5112803;28;20462;-64
2021/11/10 07:12:15;;;;;;;36.57;19.17;;;;;;;;;;5119364;28;20451;-62
2021/11/10 07:14:44;;;;;;;43.93;19.27;;;;;;;;;;5119738;28;20443;-64
2021/11/10 07:17:14;;;;;;;34.70;18.63;;;;;;;;;;5114014;28;20466;-64
2021/11/10 07:19:42;;;;;;;31.37;17.73;;;;;;;;;;5114195;28;20806;-65
2021/11/10 07:22:10;;;;;;;39.20;21.07;;;;;;;;;;5119100;28;20446;-64
2021/11/10 07:24:38;;;;;;;41.33;21.63;;;;;;;;;;5119142;28;20988;-65
2021/11/10 07:27:07;;;;;;;39.03;20.17;;;;;;;;;;5128565;27;20490;-64
2021/11/10 07:29:35;;;;;;;42.03;21.57;;;;;;;;;;5125513;27;20466;-64
2021/11/10 07:32:04;;;;;;;41.37;20.40;;;;;;;;;;5119424;28;20469;-64
2021/11/10 07:34:36;;;;;;;39.63;20.37;;;;;;;;;;5119178;28;20446;-64
2021/11/10 07:37:04;;;;;;;39.57;20.50;;;;;;;;;;5116730;28;20478;-64
2021/11/10 07:39:33;;;;;;;41.90;21.10;;;;;;;;;;5117163;28;20511;-64
2021/11/10 07:42:03;;;;;;;39.90;19.83;;;;;;;;;;5118033;28;20438;-64
2021/11/10 07:44:31;;;;;;;40.53;21.27;;;;;;;;;;5117374;28;20446;-65
2021/11/10 07:47:07;;;;;;;45.77;20.97;;;;;;;;;;5119249;27;20529;-64
2021/11/10 07:49:37;;;;;;;49.43;22.50;;;;;;;;;;5119355;28;20462;-64
2021/11/10 07:52:06;;;;;;;41.47;20.03;;;;;;;;;;5118754;28;20470;-65
2021/11/10 07:54:35;;;;;;;46.73;21.10;;;;;;;;;;5118843;28;20880;-64
2021/11/10 07:57:03;;;;;;;42.43;19.33;;;;;;;;;;5117380;28;21066;-64
2021/11/10 07:59:31;;;;;;;35.30;19.53;;;;;;;;;;5108627;28;20460;-64
2021/11/10 08:01:59;;;;;;;39.50;20.87;;;;;;;;;;5105125;28;20511;-64
2021/11/10 08:04:28;;;;;;;37.23;20.10;;;;;;;;;;5103231;28;20849;-64
2021/11/10 08:06:57;;;;;;;38.90;20.40;;;;;;;;;;5101486;28;20313;-64
2021/11/10 08:09:25;;;;;;;40.33;20.20;;;;;;;;;;5103220;28;20586;-64
2021/11/10 08:11:53;;;;;;;38.30;19.90;;;;;;;;;;5116567;28;20299;-64
2021/11/10 08:14:21;;;;;;;39.00;19.80;;;;;;;;;;5116698;28;20646;-64
2021/11/10 08:16:49;;;;;;;43.13;20.37;;;;;;;;;;5116558;28;20284;-63
2021/11/10 08:19:17;;;;;;;39.77;20.37;;;;;;;;;;5116511;28;20221;-64
2021/11/10 08:21:45;;;;;;;42.73;21.97;;;;;;;;;;5113806;28;20332;-64
2021/11/10 08:24:15;;;;;;;44.00;20.67;;;;;;;;;;5104309;28;20608;-64
2021/11/10 08:26:46;;;;;;;43.23;21.80;;;;;;;;;;5104353;28;20656;-64
2021/11/10 08:29:15;;;;;;;48.83;23.07;;;;;;;;;;5111154;28;20496;-64
2021/11/10 08:31:43;;;;;;;45.93;21.87;;;;;;;;;;5117907;28;20504;-65
2021/11/10 08:34:11;;;;;;;47.13;22.67;;;;;;;;;;5117919;28;20443;-65
2021/11/10 08:36:39;;;;;;;40.50;20.70;;;;;;;;;;5118214;28;20470;-65
2021/11/10 08:39:08;;;;;;;43.57;20.83;;;;;;;;;;5117674;28;20466;-64
2021/11/10 08:41:38;;;;;;;42.40;21.27;;;;;;;;;;5117599;28;20447;-64
2021/11/10 08:44:06;;;;;;;45.47;20.70;;;;;;;;;;5118168;28;20439;-65
2021/11/10 08:46:34;;;;;;;48.03;21.77;;;;;;;;;;5118058;28;20482;-64
2021/11/10 08:49:03;;;;;;;43.00;21.43;;;;;;;;;;5117574;28;20969;-64
2021/11/10 08:51:31;;;;;;;45.80;23.23;;;;;;;;;;5117678;28;20500;-64
2021/11/10 08:53:59;;;;;;;45.87;21.17;;;;;;;;;;5111365;27;20459;-65
2021/11/10 08:56:27;;;;;;;44.33;20.73;;;;;;;;;;5138202;27;20442;-64
2021/11/10 08:58:58;;;;;;;43.73;22.10;;;;;;;;;;5138363;27;20552;-64
2021/11/10 09:01:26;;;;;;;50.37;21.20;;;;;;;;;;5138640;27;20484;-65
2021/11/10 09:03:54;;;;;;;49.27;21.23;;;;;;;;;;5138138;27;20441;-64
2021/11/10 09:06:23;;;;;;;39.87;20.07;;;;;;;;;;5137929;27;20568;-65
2021/11/10 09:08:51;;;;;;;41.07;21.50;;;;;;;;;;5138192;27;20499;-64
2021/11/10 09:11:20;;;;;;;41.00;20.73;;;;;;;;;;5137761;27;20204;-64
2021/11/10 09:13:48;;;;;;;43.97;21.57;;;;;;;;;;5138006;27;20892;-64
2021/11/10 09:16:18;;;;;;;46.40;20.47;;;;;;;;;;5113640;27;20930;-65
2021/11/10 09:18:46;;;;;;;44.13;20.03;;;;;;;;;;5103558;28;20466;-64
2021/11/10 09:21:15;;;;;;;44.00;20.33;;;;;;;;;;5117381;28;20483;-64
2021/11/10 09:23:43;;;;;;;45.97;21.60;;;;;;;;;;5117202;28;20850;-64
2021/11/10 09:26:11;;;;;;;42.60;20.93;;;;;;;;;;5117668;28;20474;-65
2021/11/10 09:28:39;;;;;;;47.17;20.87;;;;;;;;;;5103881;28;20458;-65
2021/11/10 09:31:08;;;;;;;44.37;20.27;;;;;;;;;;5121652;28;20442;-64
2021/11/10 09:33:40;;;;;;;46.43;20.20;;;;;;;;;;5121875;28;20538;-64
2021/11/10 09:36:09;;;;;;;43.00;20.83;;;;;;;;;;5121330;28;20435;-64
2021/11/10 09:38:37;;;;;;;50.87;22.53;;;;;;;;;;5121249;28;20899;-64
2021/11/10 09:41:07;;;;;;;41.97;20.60;;;;;;;;;;5121130;28;20435;-64
2021/11/10 09:43:36;;;;;;;42.13;21.13;;;;;;;;;;5121253;28;20496;-64
2021/11/10 09:46:06;;;;;;;41.57;20.17;;;;;;;;;;5121167;28;20478;-64
2021/11/10 09:48:36;;;;;;;40.43;19.90;;;;;;;;;;5121060;28;20466;-65
2021/11/10 09:51:07;;;;;;;41.53;22.00;;;;;;;;;;5120817;28;20929;-64
2021/11/10 09:53:36;;;;;;;40.23;18.50;;;;;;;;;;5119293;28;20434;-64
2021/11/10 09:56:04;;;;;;;43.03;20.33;;;;;;;;;;5120792;28;20446;-64
2021/11/10 09:58:34;;;;;;;40.27;20.87;;;;;;;;;;5119635;28;20537;-65
2021/11/10 10:01:04;;;;;;;38.23;20.87;;;;;;;;;;5106213;28;20518;-64
2021/11/10 10:03:33;;;;;;;48.40;21.67;;;;;;;;;;5104838;28;20546;-64
2021/11/10 10:06:01;;;;;;;43.97;20.13;;;;;;;;;;5108055;28;20570;-64
2021/11/10 10:08:31;;;;;;;47.40;20.30;;;;;;;;;;5105550;28;20524;-64
2021/11/10 10:10:59;;;;;;;38.63;19.93;;;;;;;;;;5108020;28;20472;-65
2021/11/10 10:13:27;;;;;;;40.87;20.57;;;;;;;;;;5106586;28;20523;-65
2021/11/10 10:15:55;;;;;;;43.17;20.60;;;;;;;;;;5108931;28;20946;-64
2021/11/10 10:18:24;;;;;;;39.10;19.47;;;;;;;;;;5114125;28;20462;-64
2021/11/10 10:20:53;;;;;;;39.50;19.70;;;;;;;;;;5111473;28;20444;-64
2021/11/10 10:23:22;;;;;;;37.07;19.43;;;;;;;;;;5108558;28;20441;-64
2021/11/10 10:25:53;;;;;;;41.13;21.10;;;;;;;;;;5114501;28;20458;-65
2021/11/10 10:28:23;;;;;;;43.87;21.37;;;;;;;;;;5119555;27;21049;-65
2021/11/10 10:30:52;;;;;;;41.83;18.57;;;;;;;;;;5119240;28;21006;-65
2021/11/10 10:33:21;;;;;;;37.10;19.57;;;;;;;;;;5109744;28;20525;-65
2021/11/10 10:35:52;;;;;;;40.03;18.97;;;;;;;;;;5119036;28;20446;-65
2021/11/10 10:38:21;;;;;;;39.57;19.33;;;;;;;;;;5119169;28;20473;-65
2021/11/10 10:40:50;;;;;;;42.90;20.60;;;;;;;;;;5118133;28;20914;-65
2021/11/10 10:43:20;;;;;;;51.13;22.07;;;;;;;;;;5119376;28;20926;-65
2021/11/10 10:45:49;;;;;;;38.53;20.30;;;;;;;;;;5119182;28;20453;-65
2021/11/10 10:48:18;;;;;;;38.60;18.73;;;;;;;;;;5118571;28;20570;-65
2021/11/10 10:50:49;;;;;;;35.10;18.53;;;;;;;;;;5118996;28;20442;-65
2021/11/10 10:53:19;;;;;;;36.77;18.97;;;;;;;;;;5107799;28;20471;-65
2021/11/10 10:55:48;;;;;;;45.83;20.90;;;;;;;;;;5117009;28;20910;-65
2021/11/10 10:58:35;;;;;;;45.03;20.47;;;;;;;;;;5118818;28;20470;-65
2021/11/10 11:01:18;;;;;;;48.57;21.67;;;;;;;;;;5106957;28;20236;-65
2021/11/10 11:03:48;;;;;;;47.03;22.70;;;;;;;;;;5118550;28;20201;-65
2021/11/10 11:06:23;;;;;;;47.30;23.17;;;;;;;;;;5118848;28;20478;-64
2021/11/10 11:08:52;;;;;;;50.30;23.83;;;;;;;;;;5118531;28;20263;-65
2021/11/10 11:11:38;;;;;;;48.27;21.03;;;;;;;;;;5118429;28;20435;-65
2021/11/10 11:14:15;;;;;;;48.57;21.33;;;;;;;;;;5118445;28;20474;-64
2021/11/10 11:16:53;;;;;;;39.33;19.83;;;;;;;;;;5117254;28;20438;-64
2021/11/10 11:19:21;;;;;;;42.33;21.57;;;;;;;;;;5109026;28;20535;-64
2021/11/10 11:21:56;;;;;;;45.27;21.37;;;;;;;;;;5106455;28;20459;-64
2021/11/10 11:24:31;;;;;;;45.70;21.80;;;;;;;;;;5100835;28;20467;-65
2021/11/10 11:27:10;;;;;;;45.90;23.07;;;;;;;;;;5116510;27;20979;-65
2021/11/10 11:29:40;;;;;;;44.63;20.93;;;;;;;;;;5124027;27;20988;-64
2021/11/10 11:32:19;;;;;;;43.80;22.53;;;;;;;;;;5118672;28;20534;-64
2021/11/10 11:34:55;;;;;;;52.43;22.10;;;;;;;;;;5118363;28;20476;-65
2021/11/10 11:37:24;;;;;;;42.10;19.30;;;;;;;;;;5107700;28;20514;-64
2021/11/10 11:39:54;;;;;;;44.47;21.57;;;;;;;;;;5105775;28;20470;-64
2021/11/10 11:42:22;;;;;;;48.17;22.13;;;;;;;;;;5114393;28;20472;-65
2021/11/10 11:44:51;;;;;;;49.10;21.57;;;;;;;;;;5118467;28;20463;-64
2021/11/10 11:47:19;;;;;;;51.77;22.33;;;;;;;;;;5118846;28;20557;-64
2021/11/10 11:49:48;;;;;;;45.47;21.83;;;;;;;;;;5114195;28;20494;-68
2021/11/10 11:52:17;;;;;;;43.63;21.20;;;;;;;;;;5107340;28;20466;-69
2021/11/10 11:54:46;;;;;;;45.50;22.27;;;;;;;;;;5103773;28;20532;-69
2021/11/10 11:57:17;;;;;;;45.60;20.90;;;;;;;;;;5106635;28;20648;-69
2021/11/10 11:59:47;;;;;;;42.10;20.97;;;;;;;;;;5104606;28;20452;-69
2021/11/10 12:02:28;;;;;;;37.43;19.07;;;;;;;;;;5107086;28;20542;-69
2021/11/10 12:04:57;;;;;;;40.83;19.87;;;;;;;;;;5100569;28;20443;-69
2021/11/10 12:07:41;;;;;;;37.17;18.53;;;;;;;;;;5106835;28;20489;-64
2021/11/10 12:10:31;;;;;;;37.43;18.33;;;;;;;;;;5107824;28;20867;-65
2021/11/10 12:13:07;;;;;;;41.03;19.47;;;;;;;;;;5104302;28;20439;-66
2021/11/10 12:15:49;;;;;;;38.23;19.80;;;;;;;;;;5104493;28;21053;-67
2021/11/10 12:18:21;;;;;;;37.90;19.53;;;;;;;;;;5100367;28;20466;-66
2021/11/10 12:20:57;;;;;;;41.27;18.63;;;;;;;;;;5102716;28;20471;-65
2021/11/10 12:23:25;;;;;;;45.27;20.03;;;;;;;;;;5104623;28;20519;-66
2021/11/10 12:26:03;;;;;;;44.47;19.67;;;;;;;;;;5113205;28;20471;-67
2021/11/10 12:28:50;;;;;;;50.37;20.37;;;;;;;;;;5116522;27;20660;-67
2021/11/10 12:31:28;;;;;;;39.17;19.57;;;;;;;;;;5117973;28;20466;-67
2021/11/10 12:33:59;;;;;;;39.17;18.60;;;;;;;;;;5118119;28;20446;-67
2021/11/10 12:36:47;;;;;;;41.70;18.90;;;;;;;;;;5118168;28;20509;-67
2021/11/10 12:39:15;;;;;;;41.83;20.40;;;;;;;;;;5117952;28;20463;-67
2021/11/10 12:41:47;;;;;;;40.50;19.57;;;;;;;;;;5117913;27;20469;-67
2021/11/10 12:44:25;;;;;;;36.40;19.57;;;;;;;;;;5118631;28;20499;-67
2021/11/10 12:46:53;;;;;;;35.93;17.20;;;;;;;;;;5118403;28;20880;-67
2021/11/10 12:49:23;;;;;;;50.97;22.40;;;;;;;;;;5118154;28;20514;-67
2021/11/10 12:52:21;;;;;;;36.20;18.53;;;;;;;;;;5117352;28;20977;-67
2021/11/10 12:55:09;;;;;;;36.90;18.77;;;;;;;;;;5054914;28;20565;-67
2021/11/10 12:57:37;;;;;;;35.63;17.37;;;;;;;;;;5111973;28;20232;-67
2021/11/10 13:00:06;;;;;;;35.57;17.43;;;;;;;;;;5117869;28;20292;-67
2021/11/10 13:02:34;;;;;;;40.07;18.40;;;;;;;;;;5117602;28;20961;-67
2021/11/10 13:05:04;;;;;;;36.13;19.63;;;;;;;;;;5117310;28;20617;-67
2021/11/10 13:07:33;;;;;;;39.90;17.53;;;;;;;;;;5118467;28;20231;-66
2021/11/10 13:10:03;;;;;;;34.13;17.47;;;;;;;;;;5117925;28;20684;-67
2021/11/10 13:12:31;;;;;;;35.50;18.27;;;;;;;;;;5117847;28;20633;-66
2021/11/10 13:14:59;;;;;;;39.67;19.80;;;;;;;;;;5118063;28;20232;-66
2021/11/10 13:17:30;;;;;;;34.77;18.10;;;;;;;;;;5109729;28;20292;-66
2021/11/10 13:20:00;;;;;;;36.93;18.97;;;;;;;;;;5113137;28;20320;-66
2021/11/10 13:22:37;;;;;;;36.20;18.83;;;;;;;;;;5117732;28;20237;-66
2021/11/10 13:25:08;;;;;;;35.23;17.10;;;;;;;;;;5117545;28;20828;-66
2021/11/10 13:27:37;;;;;;;39.90;18.40;;;;;;;;;;5128903;28;20283;-66
2021/11/10 13:30:10;;;;;;;34.20;16.27;;;;;;;;;;5119198;27;20207;-67
2021/11/10 13:32:39;;;;;;;34.40;17.03;;;;;;;;;;5117590;28;20244;-66
2021/11/10 13:35:07;;;;;;;33.23;17.50;;;;;;;;;;5117346;28;20684;-66
2021/11/10 13:37:45;;;;;;;34.87;17.63;;;;;;;;;;5118232;28;20236;-66
2021/11/10 13:40:15;;;;;;;32.30;16.07;;;;;;;;;;5118252;28;20247;-66
2021/11/10 13:42:43;;;;;;;33.53;15.90;;;;;;;;;;5118227;28;20241;-66
2021/11/10 13:45:12;;;;;;;30.20;15.97;;;;;;;;;;5117602;28;20292;-66
2021/11/10 13:47:40;;;;;;;31.00;15.43;;;;;;;;;;5117063;28;20291;-66
2021/11/10 13:50:09;;;;;;;28.87;14.77;;;;;;;;;;5117205;28;20633;-66
2021/11/10 13:52:37;;;;;;;30.10;14.97;;;;;;;;;;5117224;28;20316;-66
2021/11/10 13:55:07;;;;;;;29.40;13.87;;;;;;;;;;5117164;28;20466;-66
2021/11/10 13:57:37;;;;;;;26.97;14.13;;;;;;;;;;5117309;28;20283;-67
2021/11/10 14:00:06;;;;;;;27.23;14.43;;;;;;;;;;5117449;28;20233;-67
2021/11/10 14:02:35;;;;;;;26.17;14.23;;;;;;;;;;5117213;28;20730;-67
2021/11/10 14:05:05;;;;;;;22.80;13.37;;;;;;;;;;5117387;28;20212;-67
2021/11/10 14:07:33;;;;;;;23.30;12.97;;;;;;;;;;5117023;28;20288;-66
2021/11/10 14:10:03;;;;;;;25.17;13.23;;;;;;;;;;5115862;28;20634;-66
2021/11/10 14:12:36;;;;;;;23.80;13.20;;;;;;;;;;5115488;28;20239;-66
2021/11/10 14:15:22;;;;;;;22.53;12.80;;;;;;;;;;5115911;28;20284;-65
2021/11/10 14:17:52;;;;;;;24.40;12.30;;;;;;;;;;5119007;28;20644;-66
2021/11/10 14:20:22;;;;;;;19.47;11.83;;;;;;;;;;5121802;27;20224;-66
2021/11/10 14:22:57;;;;;;;19.97;11.60;;;;;;;;;;5122912;27;20283;-66
2021/11/10 14:25:27;;;;;;;17.10;10.60;;;;;;;;;;5120550;27;20522;-66
2021/11/10 14:27:58;;;;;;;19.70;11.80;;;;;;;;;;5119768;27;20224;-66
2021/11/10 14:30:27;;;;;;;16.50;10.67;;;;;;;;;;5119870;27;20225;-66